sensor_id;sensor_type;location;lat;lon;timestamp;pressure;altitude;pressure_sealevel;temperature;humidity
39435;BME280;30098;51.880;-0.518;2022-10-16T00:01:23;99530.50;;;17.53;47.24
39435;BME280;30098;51.880;-0.518;2022-10-16T00:03:49;99522.31;;;17.53;47.49
39435;BME280;30098;51.880;-0.518;2022-10-16T00:06:17;99529.72;;;17.52;47.64
39435;BME280;30098;51.880;-0.518;2022-10-16T00:08:43;99524.25;;;17.52;47.40
39435;BME280;30098;51.880;-0.518;2022-10-16T00:11:13;99533.22;;;17.53;47.53
39435;BME280;30098;51.880;-0.518;2022-10-16T00:13:40;99525.03;;;17.53;47.45
39435;BME280;30098;51.880;-0.518;2022-10-16T00:16:07;99532.75;;;17.51;47.21
39435;BME280;30098;51.880;-0.518;2022-10-16T00:18:33;99531.59;;;17.52;47.52
39435;BME280;30098;51.880;-0.518;2022-10-16T00:21:04;99529.72;;;17.52;47.35
39435;BME280;30098;51.880;-0.518;2022-10-16T00:23:30;99536.28;;;17.51;47.32
39435;BME280;30098;51.880;-0.518;2022-10-16T00:25:58;99535.47;;;17.51;47.12
39435;BME280;30098;51.880;-0.518;2022-10-16T00:28:24;99538.19;;;17.51;47.34
39435;BME280;30098;51.880;-0.518;2022-10-16T00:30:50;99534.66;;;17.50;47.25
39435;BME280;30098;51.880;-0.518;2022-10-16T00:33:15;99523.13;;;17.44;47.14
39435;BME280;30098;51.880;-0.518;2022-10-16T00:35:41;99520.91;;;17.46;47.61
39435;BME280;30098;51.880;-0.518;2022-10-16T00:38:06;99520.25;;;17.50;47.21
39435;BME280;30098;51.880;-0.518;2022-10-16T00:40:32;99505.34;;;17.38;47.53
39435;BME280;30098;51.880;-0.518;2022-10-16T00:42:57;99516.72;;;17.49;47.37
39435;BME280;30098;51.880;-0.518;2022-10-16T00:45:23;99524.88;;;17.49;47.60
39435;BME280;30098;51.880;-0.518;2022-10-16T00:47:50;99504.25;;;17.39;47.29
39435;BME280;30098;51.880;-0.518;2022-10-16T00:50:28;99525.72;;;17.50;47.49
39435;BME280;30098;51.880;-0.518;2022-10-16T00:52:56;99517.84;;;17.48;47.46
39435;BME280;30098;51.880;-0.518;2022-10-16T00:55:22;99522.50;;;17.48;47.22
39435;BME280;30098;51.880;-0.518;2022-10-16T00:57:49;99526.00;;;17.48;47.19
39435;BME280;30098;51.880;-0.518;2022-10-16T01:00:20;99520.56;;;17.48;47.38
39435;BME280;30098;51.880;-0.518;2022-10-16T01:02:57;99526.00;;;17.48;47.21
39435;BME280;30098;51.880;-0.518;2022-10-16T01:05:30;99529.53;;;17.49;47.12
39435;BME280;30098;51.880;-0.518;2022-10-16T01:08:22;99529.53;;;17.49;47.14
39435;BME280;30098;51.880;-0.518;2022-10-16T01:11:17;99538.50;;;17.49;47.21
39435;BME280;30098;51.880;-0.518;2022-10-16T01:13:48;99527.94;;;17.48;47.59
39435;BME280;30098;51.880;-0.518;2022-10-16T01:16:45;99530.50;;;17.44;47.17
39435;BME280;30098;51.880;-0.518;2022-10-16T01:22:00;99538.84;;;17.48;47.07
39435;BME280;30098;51.880;-0.518;2022-10-16T01:24:43;99542.69;;;17.46;47.18
39435;BME280;30098;51.880;-0.518;2022-10-16T01:27:22;99546.22;;;17.47;47.38
39435;BME280;30098;51.880;-0.518;2022-10-16T01:35:27;99541.06;;;17.45;47.27
39435;BME280;30098;51.880;-0.518;2022-10-16T01:38:00;99532.13;;;17.45;47.21
39435;BME280;30098;51.880;-0.518;2022-10-16T01:40:28;99538.34;;;17.45;47.16
39435;BME280;30098;51.880;-0.518;2022-10-16T01:43:20;99544.91;;;17.44;47.42
39435;BME280;30098;51.880;-0.518;2022-10-16T01:45:47;99439.06;;;16.73;47.32
39435;BME280;30098;51.880;-0.518;2022-10-16T01:48:16;99543.19;;;17.40;47.33
39435;BME280;30098;51.880;-0.518;2022-10-16T01:50:44;99550.34;;;17.44;47.29
39435;BME280;30098;51.880;-0.518;2022-10-16T01:53:15;99548.44;;;17.45;47.36
39435;BME280;30098;51.880;-0.518;2022-10-16T01:55:44;99524.44;;;17.29;46.89
39435;BME280;30098;51.880;-0.518;2022-10-16T01:58:12;99549.56;;;17.44;47.23
39435;BME280;30098;51.880;-0.518;2022-10-16T02:00:41;99559.66;;;17.43;46.96
39435;BME280;30098;51.880;-0.518;2022-10-16T02:03:09;99554.84;;;17.40;47.22
39435;BME280;30098;51.880;-0.518;2022-10-16T02:05:49;99562.41;;;17.43;47.13
39435;BME280;30098;51.880;-0.518;2022-10-16T02:08:17;99558.84;;;17.43;47.10
39435;BME280;30098;51.880;-0.518;2022-10-16T02:10:43;99562.41;;;17.43;46.92
39435;BME280;30098;51.880;-0.518;2022-10-16T02:13:26;99556.13;;;17.43;47.17
39435;BME280;30098;51.880;-0.518;2022-10-16T02:15:53;99547.63;;;17.36;46.79
39435;BME280;30098;51.880;-0.518;2022-10-16T02:18:18;99528.59;;;17.18;47.33
39435;BME280;30098;51.880;-0.518;2022-10-16T02:20:55;99564.31;;;17.43;47.19
39435;BME280;30098;51.880;-0.518;2022-10-16T02:23:40;99573.13;;;17.40;47.30
39435;BME280;30098;51.880;-0.518;2022-10-16T02:26:13;99582.09;;;17.40;47.42
39435;BME280;30098;51.880;-0.518;2022-10-16T02:28:45;99480.31;;;16.75;47.12
39435;BME280;30098;51.880;-0.518;2022-10-16T02:31:16;99580.97;;;17.41;46.97
39435;BME280;30098;51.880;-0.518;2022-10-16T02:33:45;99583.38;;;17.34;47.20
39435;BME280;30098;51.880;-0.518;2022-10-16T02:36:11;99601.63;;;17.42;47.23
39435;BME280;30098;51.880;-0.518;2022-10-16T02:38:38;99597.31;;;17.41;46.86
39435;BME280;30098;51.880;-0.518;2022-10-16T02:41:05;99590.25;;;17.32;47.08
39435;BME280;30098;51.880;-0.518;2022-10-16T02:43:31;99608.19;;;17.41;46.98
39435;BME280;30098;51.880;-0.518;2022-10-16T02:45:58;99614.44;;;17.33;46.96
39435;BME280;30098;51.880;-0.518;2022-10-16T02:48:24;99621.81;;;17.41;46.89
39435;BME280;30098;51.880;-0.518;2022-10-16T02:50:49;99521.78;;;16.72;47.05
39435;BME280;30098;51.880;-0.518;2022-10-16T02:53:16;99634.59;;;17.41;47.06
39435;BME280;30098;51.880;-0.518;2022-10-16T02:55:42;99629.97;;;17.41;46.84
39435;BME280;30098;51.880;-0.518;2022-10-16T02:58:07;99622.59;;;17.33;46.71
39435;BME280;30098;51.880;-0.518;2022-10-16T03:00:33;99595.50;;;17.19;46.87
39435;BME280;30098;51.880;-0.518;2022-10-16T03:02:58;99635.41;;;17.41;47.09
39435;BME280;30098;51.880;-0.518;2022-10-16T03:05:24;99641.97;;;17.40;46.87
39435;BME280;30098;51.880;-0.518;2022-10-16T03:07:49;99643.91;;;17.40;46.94
39435;BME280;30098;51.880;-0.518;2022-10-16T03:10:14;99599.81;;;17.11;47.29
39435;BME280;30098;51.880;-0.518;2022-10-16T03:12:40;99650.16;;;17.40;47.11
39435;BME280;30098;51.880;-0.518;2022-10-16T03:15:06;99656.38;;;17.41;46.88
39435;BME280;30098;51.880;-0.518;2022-10-16T03:17:32;99640.69;;;17.29;47.24
39435;BME280;30098;51.880;-0.518;2022-10-16T03:19:58;99664.56;;;17.41;47.03
39435;BME280;30098;51.880;-0.518;2022-10-16T03:22:23;99657.38;;;17.36;47.00
39435;BME280;30098;51.880;-0.518;2022-10-16T03:24:49;99660.09;;;17.36;47.06
39435;BME280;30098;51.880;-0.518;2022-10-16T03:27:14;99654.81;;;17.40;47.03
39435;BME280;30098;51.880;-0.518;2022-10-16T03:29:40;99666.81;;;17.39;46.86
39435;BME280;30098;51.880;-0.518;2022-10-16T03:32:05;99671.16;;;17.40;47.19
39435;BME280;30098;51.880;-0.518;2022-10-16T03:34:30;99670.31;;;17.39;47.19
39435;BME280;30098;51.880;-0.518;2022-10-16T03:36:56;99675.78;;;17.39;46.70
39435;BME280;30098;51.880;-0.518;2022-10-16T03:39:22;99683.16;;;17.39;47.05
39435;BME280;30098;51.880;-0.518;2022-10-16T03:41:47;99683.94;;;17.39;46.96
39435;BME280;30098;51.880;-0.518;2022-10-16T03:44:13;99693.22;;;17.38;47.00
39435;BME280;30098;51.880;-0.518;2022-10-16T03:46:38;99687.78;;;17.38;46.88
39435;BME280;30098;51.880;-0.518;2022-10-16T03:49:04;99702.22;;;17.39;46.94
39435;BME280;30098;51.880;-0.518;2022-10-16T03:51:29;99698.66;;;17.38;47.00
39435;BME280;30098;51.880;-0.518;2022-10-16T03:53:55;99707.66;;;17.39;46.70
39435;BME280;30098;51.880;-0.518;2022-10-16T03:56:20;99706.06;;;17.38;46.60
39435;BME280;30098;51.880;-0.518;2022-10-16T03:58:46;99705.06;;;17.34;46.63
39435;BME280;30098;51.880;-0.518;2022-10-16T04:01:11;99710.69;;;17.37;46.60
39435;BME280;30098;51.880;-0.518;2022-10-16T04:03:37;99702.50;;;17.37;46.70
39435;BME280;30098;51.880;-0.518;2022-10-16T04:06:02;99681.81;;;17.19;46.94
39435;BME280;30098;51.880;-0.518;2022-10-16T04:08:28;99722.38;;;17.38;46.89
39435;BME280;30098;51.880;-0.518;2022-10-16T04:10:53;99718.84;;;17.37;46.93
39435;BME280;30098;51.880;-0.518;2022-10-16T04:13:19;99732.78;;;17.36;46.92
39435;BME280;30098;51.880;-0.518;2022-10-16T04:15:45;99728.16;;;17.36;47.06
39435;BME280;30098;51.880;-0.518;2022-10-16T04:18:10;99726.53;;;17.35;46.72
39435;BME280;30098;51.880;-0.518;2022-10-16T04:20:36;99719.47;;;17.25;47.04
39435;BME280;30098;51.880;-0.518;2022-10-16T04:23:01;99740.94;;;17.36;46.93
39435;BME280;30098;51.880;-0.518;2022-10-16T04:25:27;99744.78;;;17.35;46.71
39435;BME280;30098;51.880;-0.518;2022-10-16T04:27:53;99708.19;;;17.09;46.84
39435;BME280;30098;51.880;-0.518;2022-10-16T04:30:19;99739.16;;;17.31;46.48
39435;BME280;30098;51.880;-0.518;2022-10-16T04:32:50;99754.41;;;17.32;46.74
39435;BME280;30098;51.880;-0.518;2022-10-16T04:35:17;99744.28;;;17.24;46.61
39435;BME280;30098;51.880;-0.518;2022-10-16T04:37:42;99773.94;;;17.34;46.47
39435;BME280;30098;51.880;-0.518;2022-10-16T04:40:08;99775.84;;;17.34;46.51
39435;BME280;30098;51.880;-0.518;2022-10-16T04:42:33;99787.88;;;17.33;46.42
39435;BME280;30098;51.880;-0.518;2022-10-16T04:44:59;99781.44;;;17.28;46.49
39435;BME280;30098;51.880;-0.518;2022-10-16T04:47:24;99793.31;;;17.33;46.92
39435;BME280;30098;51.880;-0.518;2022-10-16T04:49:50;99806.94;;;17.33;47.02
39435;BME280;30098;51.880;-0.518;2022-10-16T04:52:15;99786.38;;;17.18;46.41
39435;BME280;30098;51.880;-0.518;2022-10-16T04:54:41;99773.69;;;17.13;46.89
39435;BME280;30098;51.880;-0.518;2022-10-16T04:57:06;99811.56;;;17.32;46.53
39435;BME280;30098;51.880;-0.518;2022-10-16T04:59:32;99816.22;;;17.32;46.92
39435;BME280;30098;51.880;-0.518;2022-10-16T05:01:57;99829.00;;;17.31;46.55
39435;BME280;30098;51.880;-0.518;2022-10-16T05:04:23;99832.84;;;17.30;46.84
39435;BME280;30098;51.880;-0.518;2022-10-16T05:06:48;99834.47;;;17.31;46.72
39435;BME280;30098;51.880;-0.518;2022-10-16T05:09:14;99794.44;;;17.00;46.58
39435;BME280;30098;51.880;-0.518;2022-10-16T05:11:39;99833.00;;;17.25;46.46
39435;BME280;30098;51.880;-0.518;2022-10-16T05:14:05;99847.09;;;17.27;46.64
39435;BME280;30098;51.880;-0.518;2022-10-16T05:16:30;99851.91;;;17.30;46.74
39435;BME280;30098;51.880;-0.518;2022-10-16T05:18:56;99851.13;;;17.29;46.49
39435;BME280;30098;51.880;-0.518;2022-10-16T05:21:22;99840.81;;;17.18;46.80
39435;BME280;30098;51.880;-0.518;2022-10-16T05:23:47;99858.31;;;17.25;46.51
39435;BME280;30098;51.880;-0.518;2022-10-16T05:26:13;99863.41;;;17.18;46.69
39435;BME280;30098;51.880;-0.518;2022-10-16T05:28:38;99875.13;;;17.27;46.70
39435;BME280;30098;51.880;-0.518;2022-10-16T05:31:08;99878.66;;;17.28;46.58
39435;BME280;30098;51.880;-0.518;2022-10-16T05:33:34;99884.09;;;17.28;46.57
39435;BME280;30098;51.880;-0.518;2022-10-16T05:36:08;99803.53;;;16.73;46.84
39435;BME280;30098;51.880;-0.518;2022-10-16T05:38:35;99879.78;;;17.27;46.46
39435;BME280;30098;51.880;-0.518;2022-10-16T05:41:01;99793.59;;;16.68;46.62
39435;BME280;30098;51.880;-0.518;2022-10-16T05:43:28;99893.38;;;17.27;46.61
39435;BME280;30098;51.880;-0.518;2022-10-16T05:45:58;99898.84;;;17.27;46.53
39435;BME280;30098;51.880;-0.518;2022-10-16T05:48:24;99901.56;;;17.27;46.75
39435;BME280;30098;51.880;-0.518;2022-10-16T05:51:02;99909.72;;;17.27;46.81
39435;BME280;30098;51.880;-0.518;2022-10-16T05:53:30;99897.22;;;17.26;46.84
39435;BME280;30098;51.880;-0.518;2022-10-16T05:55:56;99897.22;;;17.26;46.38
39435;BME280;30098;51.880;-0.518;2022-10-16T05:58:21;99913.56;;;17.26;46.40
39435;BME280;30098;51.880;-0.518;2022-10-16T06:01:01;99909.34;;;17.20;46.40
39435;BME280;30098;51.880;-0.518;2022-10-16T06:03:27;99918.22;;;17.25;46.70
39435;BME280;30098;51.880;-0.518;2022-10-16T06:05:53;99742.97;;;16.13;46.51
39435;BME280;30098;51.880;-0.518;2022-10-16T06:08:20;99928.41;;;17.20;46.29
39435;BME280;30098;51.880;-0.518;2022-10-16T06:10:48;99938.38;;;17.24;46.29
39435;BME280;30098;51.880;-0.518;2022-10-16T06:13:14;99946.53;;;17.24;46.24
39435;BME280;30098;51.880;-0.518;2022-10-16T06:15:41;99950.06;;;17.25;46.48
39435;BME280;30098;51.880;-0.518;2022-10-16T06:18:08;99918.69;;;17.05;46.43
39435;BME280;30098;51.880;-0.518;2022-10-16T06:20:34;99930.56;;;17.09;46.40
39435;BME280;30098;51.880;-0.518;2022-10-16T06:23:00;99954.72;;;17.24;46.42
39435;BME280;30098;51.880;-0.518;2022-10-16T06:25:25;99955.81;;;17.23;46.28
39435;BME280;30098;51.880;-0.518;2022-10-16T06:27:51;99963.97;;;17.23;46.53
39435;BME280;30098;51.880;-0.518;2022-10-16T06:30:16;99972.16;;;17.23;46.27
39435;BME280;30098;51.880;-0.518;2022-10-16T06:32:42;99968.59;;;17.23;46.35
39435;BME280;30098;51.880;-0.518;2022-10-16T06:35:07;99982.22;;;17.23;46.25
39435;BME280;30098;51.880;-0.518;2022-10-16T06:37:33;99984.94;;;17.23;46.51
39435;BME280;30098;51.880;-0.518;2022-10-16T06:39:58;99984.94;;;17.23;46.37
39435;BME280;30098;51.880;-0.518;2022-10-16T06:42:25;99993.09;;;17.23;46.41
39435;BME280;30098;51.880;-0.518;2022-10-16T06:44:51;99876.94;;;16.50;46.23
39435;BME280;30098;51.880;-0.518;2022-10-16T06:47:16;99989.22;;;17.15;46.19
39435;BME280;30098;51.880;-0.518;2022-10-16T06:49:42;100005.94;;;17.22;46.19
39435;BME280;30098;51.880;-0.518;2022-10-16T06:52:07;99966.38;;;17.02;46.46
39435;BME280;30098;51.880;-0.518;2022-10-16T06:54:33;100007.84;;;17.22;46.63
39435;BME280;30098;51.880;-0.518;2022-10-16T06:56:58;100017.13;;;17.21;46.27
39435;BME280;30098;51.880;-0.518;2022-10-16T06:59:25;100019.84;;;17.21;46.48
39435;BME280;30098;51.880;-0.518;2022-10-16T07:01:50;100023.38;;;17.21;46.17
39435;BME280;30098;51.880;-0.518;2022-10-16T07:04:16;100026.09;;;17.21;46.65
39435;BME280;30098;51.880;-0.518;2022-10-16T07:06:41;99934.25;;;16.54;46.39
39435;BME280;30098;51.880;-0.518;2022-10-16T07:09:09;100036.19;;;17.21;46.59
39435;BME280;30098;51.880;-0.518;2022-10-16T07:11:37;100038.09;;;17.20;46.20
39435;BME280;30098;51.880;-0.518;2022-10-16T07:14:03;100044.63;;;17.19;46.15
39435;BME280;30098;51.880;-0.518;2022-10-16T07:16:30;100048.19;;;17.20;46.24
39435;BME280;30098;51.880;-0.518;2022-10-16T07:18:58;100051.69;;;17.20;46.27
39435;BME280;30098;51.880;-0.518;2022-10-16T07:21:25;100053.63;;;17.20;46.48
39435;BME280;30098;51.880;-0.518;2022-10-16T07:23:52;100064.53;;;17.20;46.54
39435;BME280;30098;51.880;-0.518;2022-10-16T07:26:18;100043.59;;;17.06;46.26
39435;BME280;30098;51.880;-0.518;2022-10-16T07:28:44;100071.88;;;17.19;46.49
39435;BME280;30098;51.880;-0.518;2022-10-16T07:31:11;100072.19;;;17.18;46.49
39435;BME280;30098;51.880;-0.518;2022-10-16T07:33:40;100075.72;;;17.18;46.54
39435;BME280;30098;51.880;-0.518;2022-10-16T07:36:07;100092.84;;;17.19;46.65
39435;BME280;30098;51.880;-0.518;2022-10-16T07:38:33;100063.13;;;17.08;46.32
39435;BME280;30098;51.880;-0.518;2022-10-16T07:41:02;100085.47;;;17.19;46.31
39435;BME280;30098;51.880;-0.518;2022-10-16T07:43:28;100085.47;;;17.19;46.31
39435;BME280;30098;51.880;-0.518;2022-10-16T07:45:54;100087.41;;;17.19;46.57
39435;BME280;30098;51.880;-0.518;2022-10-16T07:48:21;99988.44;;;16.50;46.20
39435;BME280;30098;51.880;-0.518;2022-10-16T07:50:47;100101.81;;;17.19;46.07
39435;BME280;30098;51.880;-0.518;2022-10-16T07:53:14;100099.09;;;17.19;46.11
39435;BME280;30098;51.880;-0.518;2022-10-16T07:55:39;100109.97;;;17.19;46.18
39435;BME280;30098;51.880;-0.518;2022-10-16T07:58:05;100105.66;;;17.18;46.44
39435;BME280;30098;51.880;-0.518;2022-10-16T08:00:31;100116.56;;;17.18;46.25
39435;BME280;30098;51.880;-0.518;2022-10-16T08:02:57;100088.84;;;17.02;46.31
39435;BME280;30098;51.880;-0.518;2022-10-16T08:05:28;100121.19;;;17.18;46.55
39435;BME280;30098;51.880;-0.518;2022-10-16T08:07:55;100132.06;;;17.18;46.31
39435;BME280;30098;51.880;-0.518;2022-10-16T08:10:22;100134.78;;;17.18;46.43
39435;BME280;30098;51.880;-0.518;2022-10-16T08:12:48;100123.50;;;17.10;46.45
39435;BME280;30098;51.880;-0.518;2022-10-16T08:15:14;100141.84;;;17.19;46.13
39435;BME280;30098;51.880;-0.518;2022-10-16T08:17:39;100138.94;;;17.15;46.10
39435;BME280;30098;51.880;-0.518;2022-10-16T08:20:05;100148.41;;;17.18;46.15
39435;BME280;30098;51.880;-0.518;2022-10-16T08:22:31;100147.59;;;17.17;46.12
39435;BME280;30098;51.880;-0.518;2022-10-16T08:24:56;100159.28;;;17.18;46.18
39435;BME280;30098;51.880;-0.518;2022-10-16T08:27:22;100137.31;;;17.00;46.53
39435;BME280;30098;51.880;-0.518;2022-10-16T08:29:50;100155.78;;;17.17;46.31
39435;BME280;30098;51.880;-0.518;2022-10-16T08:32:16;100163.44;;;17.15;46.18
39435;BME280;30098;51.880;-0.518;2022-10-16T08:34:41;100049.47;;;16.44;45.97
39435;BME280;30098;51.880;-0.518;2022-10-16T08:37:07;100177.56;;;17.17;46.41
39435;BME280;30098;51.880;-0.518;2022-10-16T08:39:36;100174.31;;;17.15;46.37
39435;BME280;30098;51.880;-0.518;2022-10-16T08:47:43;100194.69;;;17.18;46.01
39435;BME280;30098;51.880;-0.518;2022-10-16T08:50:20;100202.06;;;17.17;46.20
39435;BME280;30098;51.880;-0.518;2022-10-16T08:52:47;100198.50;;;17.17;46.17
39435;BME280;30098;51.880;-0.518;2022-10-16T08:55:30;100210.22;;;17.17;46.37
39435;BME280;30098;51.880;-0.518;2022-10-16T08:57:58;100168.47;;;16.94;46.30
39435;BME280;30098;51.880;-0.518;2022-10-16T09:00:24;100199.94;;;17.14;46.13
39435;BME280;30098;51.880;-0.518;2022-10-16T09:11:24;100222.22;;;17.16;46.07
39435;BME280;30098;51.880;-0.518;2022-10-16T09:16:55;100234.53;;;17.13;46.23
39435;BME280;30098;51.880;-0.518;2022-10-16T09:19:33;100231.78;;;17.13;46.42
39435;BME280;30098;51.880;-0.518;2022-10-16T09:22:10;100228.25;;;17.13;46.42
39435;BME280;30098;51.880;-0.518;2022-10-16T09:24:37;100215.34;;;17.05;46.12
39435;BME280;30098;51.880;-0.518;2022-10-16T09:27:03;100224.72;;;17.12;46.29
39435;BME280;30098;51.880;-0.518;2022-10-16T09:29:28;100230.97;;;17.13;46.04
39435;BME280;30098;51.880;-0.518;2022-10-16T09:31:55;100231.59;;;17.10;46.12
39435;BME280;30098;51.880;-0.518;2022-10-16T09:34:36;100230.97;;;17.13;45.97
39435;BME280;30098;51.880;-0.518;2022-10-16T09:37:10;100225.84;;;17.11;46.24
39435;BME280;30098;51.880;-0.518;2022-10-16T09:39:51;100229.34;;;17.12;46.52
39435;BME280;30098;51.880;-0.518;2022-10-16T09:42:19;100234.78;;;17.12;46.40
39435;BME280;30098;51.880;-0.518;2022-10-16T09:44:50;100237.53;;;17.12;46.57
39435;BME280;30098;51.880;-0.518;2022-10-16T09:47:17;100238.34;;;17.12;46.57
39435;BME280;30098;51.880;-0.518;2022-10-16T09:50:05;100245.69;;;17.12;46.36
39435;BME280;30098;51.880;-0.518;2022-10-16T09:52:32;100249.50;;;17.11;46.16
39435;BME280;30098;51.880;-0.518;2022-10-16T09:55:36;100246.00;;;17.10;46.17
39435;BME280;30098;51.880;-0.518;2022-10-16T09:57:55;100252.22;;;17.11;46.46
39435;BME280;30098;51.880;-0.518;2022-10-16T10:00:22;100243.88;;;17.07;46.42
39435;BME280;30098;51.880;-0.518;2022-10-16T10:02:49;100248.72;;;17.10;46.36
39435;BME280;30098;51.880;-0.518;2022-10-16T10:05:24;100253.38;;;17.10;46.12
39435;BME280;30098;51.880;-0.518;2022-10-16T10:07:58;100248.72;;;17.10;46.58
39435;BME280;30098;51.880;-0.518;2022-10-16T10:10:30;100246.00;;;17.10;46.33
39435;BME280;30098;51.880;-0.518;2022-10-16T10:12:56;100219.06;;;16.95;46.52
39435;BME280;30098;51.880;-0.518;2022-10-16T10:15:23;100254.16;;;17.10;46.48
39435;BME280;30098;51.880;-0.518;2022-10-16T10:17:54;100246.09;;;17.05;46.69
39435;BME280;30098;51.880;-0.518;2022-10-16T10:20:27;100254.16;;;17.10;46.62
39435;BME280;30098;51.880;-0.518;2022-10-16T10:22:53;100250.34;;;17.11;46.50
39435;BME280;30098;51.880;-0.518;2022-10-16T10:41:40;100248.41;;;17.12;46.28
39435;BME280;30098;51.880;-0.518;2022-10-16T10:52:20;100237.94;;;17.05;46.54
39435;BME280;30098;51.880;-0.518;2022-10-16T11:00:42;100226.84;;;17.02;46.41
39435;BME280;30098;51.880;-0.518;2022-10-16T11:06:14;100248.72;;;17.10;46.50
39435;BME280;30098;51.880;-0.518;2022-10-16T11:11:25;100245.69;;;17.12;46.93
39435;BME280;30098;51.880;-0.518;2022-10-16T11:14:00;100241.13;;;17.07;46.84
39435;BME280;30098;51.880;-0.518;2022-10-16T11:16:39;100247.63;;;17.11;46.52
39435;BME280;30098;51.880;-0.518;2022-10-16T11:19:14;100242.97;;;17.12;46.74
39435;BME280;30098;51.880;-0.518;2022-10-16T11:21:50;100239.44;;;17.11;46.48
39435;BME280;30098;51.880;-0.518;2022-10-16T11:27:14;100237.31;;;17.08;46.44
39435;BME280;30098;51.880;-0.518;2022-10-16T11:29:50;100235.09;;;17.10;46.69
39435;BME280;30098;51.880;-0.518;2022-10-16T11:32:50;100239.44;;;17.11;46.57
39435;BME280;30098;51.880;-0.518;2022-10-16T11:35:27;100235.91;;;17.11;46.85
39435;BME280;30098;51.880;-0.518;2022-10-16T11:37:58;100234.00;;;17.11;46.81
39435;BME280;30098;51.880;-0.518;2022-10-16T11:40:32;100232.38;;;17.10;46.68
39435;BME280;30098;51.880;-0.518;2022-10-16T11:43:12;100236.72;;;17.11;46.60
39435;BME280;30098;51.880;-0.518;2022-10-16T11:45:46;100239.44;;;17.11;46.56
39435;BME280;30098;51.880;-0.518;2022-10-16T11:48:31;100232.91;;;17.12;46.64
39435;BME280;30098;51.880;-0.518;2022-10-16T11:51:22;100222.81;;;17.13;46.34
39435;BME280;30098;51.880;-0.518;2022-10-16T11:54:18;100227.47;;;17.12;46.75
39435;BME280;30098;51.880;-0.518;2022-10-16T11:56:48;100229.06;;;17.13;46.73
39435;BME280;30098;51.880;-0.518;2022-10-16T12:02:28;100215.47;;;17.13;46.36
39435;BME280;30098;51.880;-0.518;2022-10-16T12:05:06;100221.69;;;17.14;46.73
39435;BME280;30098;51.880;-0.518;2022-10-16T12:07:37;100222.50;;;17.14;46.59
39435;BME280;30098;51.880;-0.518;2022-10-16T12:10:21;100225.53;;;17.13;46.92
39435;BME280;30098;51.880;-0.518;2022-10-16T12:12:46;100185.38;;;16.91;46.74
39435;BME280;30098;51.880;-0.518;2022-10-16T12:17:47;100207.38;;;17.08;46.79
39435;BME280;30098;51.880;-0.518;2022-10-16T12:22:52;100230.66;;;17.14;46.79
39435;BME280;30098;51.880;-0.518;2022-10-16T12:25:29;100227.94;;;17.14;46.71
39435;BME280;30098;51.880;-0.518;2022-10-16T12:28:05;100226.84;;;17.15;46.92
39435;BME280;30098;51.880;-0.518;2022-10-16T12:30:34;100219.50;;;17.16;46.52
39435;BME280;30098;51.880;-0.518;2022-10-16T12:33:06;100201.13;;;16.94;46.91
39435;BME280;30098;51.880;-0.518;2022-10-16T12:35:45;100186.41;;;16.95;46.95
39435;BME280;30098;51.880;-0.518;2022-10-16T12:40:43;100226.56;;;17.17;46.69
39435;BME280;30098;51.880;-0.518;2022-10-16T12:46:22;100232.47;;;17.19;47.13
39435;BME280;30098;51.880;-0.518;2022-10-16T12:48:48;100197.38;;;17.04;46.68
39435;BME280;30098;51.880;-0.518;2022-10-16T12:51:33;100228.16;;;17.18;46.95
39435;BME280;30098;51.880;-0.518;2022-10-16T12:54:58;100126.50;;;16.53;46.86
39435;BME280;30098;51.880;-0.518;2022-10-16T12:57:32;100217.16;;;17.09;46.59
39435;BME280;30098;51.880;-0.518;2022-10-16T13:06:18;100224.03;;;17.21;46.97
39435;BME280;30098;51.880;-0.518;2022-10-16T13:17:14;100228.66;;;17.20;47.03
39435;BME280;30098;51.880;-0.518;2022-10-16T13:19:50;100226.75;;;17.21;46.76
39435;BME280;30098;51.880;-0.518;2022-10-16T13:30:20;100222.09;;;17.21;46.92
39435;BME280;30098;51.880;-0.518;2022-10-16T13:32:48;100223.72;;;17.22;47.03
39435;BME280;30098;51.880;-0.518;2022-10-16T13:35:22;100212.81;;;17.22;47.15
39435;BME280;30098;51.880;-0.518;2022-10-16T13:37:48;100219.88;;;17.23;46.95
39435;BME280;30098;51.880;-0.518;2022-10-16T13:40:24;100228.84;;;17.24;47.04
39435;BME280;30098;51.880;-0.518;2022-10-16T13:42:53;100220.28;;;17.17;47.11
39435;BME280;30098;51.880;-0.518;2022-10-16T13:45:20;100114.84;;;16.52;46.66
39435;BME280;30098;51.880;-0.518;2022-10-16T13:47:46;100226.13;;;17.24;47.00
39435;BME280;30098;51.880;-0.518;2022-10-16T13:50:15;100237.84;;;17.24;46.72
39435;BME280;30098;51.880;-0.518;2022-10-16T13:52:41;100221.91;;;17.18;46.79
39435;BME280;30098;51.880;-0.518;2022-10-16T13:55:14;100209.00;;;17.09;46.82
39435;BME280;30098;51.880;-0.518;2022-10-16T13:57:41;100230.47;;;17.25;47.08
39435;BME280;30098;51.880;-0.518;2022-10-16T14:00:20;100228.56;;;17.25;47.19
39435;BME280;30098;51.880;-0.518;2022-10-16T14:03:12;100234.03;;;17.25;46.93
39435;BME280;30098;51.880;-0.518;2022-10-16T14:05:44;100210.69;;;17.19;47.04
39435;BME280;30098;51.880;-0.518;2022-10-16T14:08:12;100213.03;;;17.26;47.25
39435;BME280;30098;51.880;-0.518;2022-10-16T14:10:37;100207.59;;;17.26;47.23
39435;BME280;30098;51.880;-0.518;2022-10-16T14:13:05;100208.38;;;17.26;46.77
39435;BME280;30098;51.880;-0.518;2022-10-16T14:15:35;100211.94;;;17.27;47.26
39435;BME280;30098;51.880;-0.518;2022-10-16T14:18:02;100207.59;;;17.26;47.10
39435;BME280;30098;51.880;-0.518;2022-10-16T14:20:31;100204.88;;;17.26;46.82
39435;BME280;30098;51.880;-0.518;2022-10-16T14:23:01;100208.38;;;17.26;47.35
39435;BME280;30098;51.880;-0.518;2022-10-16T14:25:29;100203.75;;;17.27;47.29
39435;BME280;30098;51.880;-0.518;2022-10-16T14:30:27;100210.81;;;17.28;47.31
39435;BME280;30098;51.880;-0.518;2022-10-16T14:32:59;100199.94;;;17.28;47.34
39435;BME280;30098;51.880;-0.518;2022-10-16T14:35:30;100205.38;;;17.28;47.33
39435;BME280;30098;51.880;-0.518;2022-10-16T14:37:57;100203.44;;;17.28;46.90
39435;BME280;30098;51.880;-0.518;2022-10-16T14:40:27;100202.66;;;17.28;47.22